Time;durP1;ratioP1;P1;durP2;ratioP2;P2;SDS_P1;SDS_P2;PMS_P1;PMS_P2;Temp;Humidity;BMP_temperature;BMP_pressure;BME280_temperature;BME280_humidity;BME280_pressure;Samples;Min_cycle;Max_cycle;Signal;HPM_P1;HPM_P2
2024/01/31 00:09:25;;;;;;;8.18;1.52;;;;;;;;;;4837448;29;20053;-94
2024/01/31 00:26:58;;;;;;;6.72;1.30;;;;;;;;;;4857204;29;20058;-94
2024/01/31 00:29:41;;;;;;;4.70;1.83;;;;;;;;;;4819847;24;20607;-96
2024/01/31 00:32:26;;;;;;;8.93;1.63;;;;;;;;;;4801696;29;20057;-96
2024/01/31 00:35:34;;;;;;;3.92;1.25;;;;;;;;;;4830946;23;20058;-96
2024/01/31 00:39:01;;;;;;;2.97;1.10;;;;;;;;;;4849667;29;20054;-96
2024/01/31 00:44:21;;;;;;;5.65;1.20;;;;;;;;;;4855750;29;20053;-96
2024/01/31 01:48:20;;;;;;;2.63;1.10;;;;;;;;;;5250824;23;20308;-95
2024/01/31 03:43:59;;;;;;;;;;;;;;;;;;;;;
2024/01/31 03:59:43;;;;;;;;;;;;;;;;;;;;;
2024/01/31 06:00:41;;;;;;;5.75;2.28;;;;;;;;;;4831743;23;20046;-93
2024/01/31 06:03:08;;;;;;;3.20;1.40;;;;;;;;;;4833819;24;20113;-93
2024/01/31 07:43:14;;;;;;;3.38;1.42;;;;;;;;;;4816023;23;20148;-96
2024/01/31 07:45:40;;;;;;;7.07;2.45;;;;;;;;;;4814115;29;21320;-94
2024/01/31 07:48:09;;;;;;;5.30;2.28;;;;;;;;;;4799216;29;20060;-93
2024/01/31 07:50:35;;;;;;;6.68;2.80;;;;;;;;;;4809732;29;20568;-95
2024/01/31 07:53:02;;;;;;;6.57;2.53;;;;;;;;;;4802621;29;20133;-95
2024/01/31 07:55:31;;;;;;;5.30;2.45;;;;;;;;;;4792193;24;20390;-95
2024/01/31 07:57:57;;;;;;;5.80;2.40;;;;;;;;;;4790110;29;20526;-95
2024/01/31 08:00:24;;;;;;;3.58;1.90;;;;;;;;;;4802129;29;20111;-95
2024/01/31 08:05:20;;;;;;;5.45;2.20;;;;;;;;;;4821772;23;20054;-93
2024/01/31 08:07:47;;;;;;;4.65;2.88;;;;;;;;;;4813145;24;20072;-95
2024/01/31 08:10:13;;;;;;;4.05;2.15;;;;;;;;;;4814410;29;20088;-94
2024/01/31 08:12:43;;;;;;;7.90;2.42;;;;;;;;;;4814309;29;20050;-93
2024/01/31 08:15:12;;;;;;;6.00;3.65;;;;;;;;;;4809491;29;20057;-94
2024/01/31 08:17:38;;;;;;;3.78;2.47;;;;;;;;;;4800420;29;20112;-94
2024/01/31 08:20:06;;;;;;;5.30;2.70;;;;;;;;;;4794934;29;20071;-94
2024/01/31 08:22:33;;;;;;;6.20;3.13;;;;;;;;;;4780389;24;20051;-94
2024/01/31 08:24:59;;;;;;;3.72;2.50;;;;;;;;;;4771478;29;20446;-94
2024/01/31 10:43:31;;;;;;;9.18;6.40;;;;;;;;;;4757625;30;20083;-93
2024/01/31 10:45:57;;;;;;;8.57;5.38;;;;;;;;;;4766759;24;20046;-93
2024/01/31 10:48:24;;;;;;;7.45;6.15;;;;;;;;;;4808355;29;20140;-93
2024/01/31 11:10:47;;;;;;;8.40;5.82;;;;;;;;;;5031309;24;20063;-95
2024/01/31 11:13:14;;;;;;;8.43;6.53;;;;;;;;;;4798618;29;20054;-94
2024/01/31 11:15:41;;;;;;;8.57;5.80;;;;;;;;;;4786136;29;20050;-96
2024/01/31 11:18:11;;;;;;;8.70;5.65;;;;;;;;;;4779319;29;20042;-94
2024/01/31 11:20:40;;;;;;;7.50;5.55;;;;;;;;;;4799702;24;20145;-94
2024/01/31 11:23:07;;;;;;;8.27;5.40;;;;;;;;;;4812883;29;20042;-94
2024/01/31 11:25:35;;;;;;;7.03;5.35;;;;;;;;;;4800759;29;21460;-94
2024/01/31 11:28:03;;;;;;;8.55;5.88;;;;;;;;;;4809603;29;20046;-95
2024/01/31 11:30:30;;;;;;;8.95;5.63;;;;;;;;;;4807184;29;20039;-96
2024/01/31 11:32:57;;;;;;;7.63;5.03;;;;;;;;;;4807824;29;20057;-95
2024/01/31 11:35:25;;;;;;;8.35;5.65;;;;;;;;;;4842113;23;20054;-93
2024/01/31 11:41:27;;;;;;;6.55;4.13;;;;;;;;;;4829734;24;20499;-95
2024/01/31 11:43:53;;;;;;;6.63;5.43;;;;;;;;;;4818569;29;20061;-95
2024/01/31 11:46:22;;;;;;;5.90;4.40;;;;;;;;;;4812176;24;20069;-95
2024/01/31 11:48:48;;;;;;;5.88;4.47;;;;;;;;;;4826414;23;20070;-96
2024/01/31 11:51:15;;;;;;;7.47;4.55;;;;;;;;;;4822039;24;20047;-95
2024/01/31 11:53:45;;;;;;;6.78;4.50;;;;;;;;;;4824209;24;20074;31
2024/01/31 11:56:12;;;;;;;8.95;4.35;;;;;;;;;;4795267;24;20212;-94
2024/01/31 11:58:39;;;;;;;7.85;5.35;;;;;;;;;;4802293;24;20055;-93
2024/01/31 12:01:05;;;;;;;6.13;4.07;;;;;;;;;;4794897;24;20055;-95
2024/01/31 12:03:38;;;;;;;8.38;4.20;;;;;;;;;;4792470;24;20051;-96
2024/01/31 15:29:56;;;;;;;11.88;8.35;;;;;;;;;;5588911;24;20351;-96
2024/01/31 15:32:22;;;;;;;13.13;8.05;;;;;;;;;;4789981;29;20058;-94
2024/01/31 16:38:08;;;;;;;8.90;7.07;;;;;;;;;;5675120;24;20054;-95
2024/01/31 16:40:34;;;;;;;12.63;8.25;;;;;;;;;;4793330;29;20046;-95
2024/01/31 16:43:03;;;;;;;8.73;7.10;;;;;;;;;;4800334;29;20412;-95
2024/01/31 17:14:07;;;;;;;15.35;8.40;;;;;;;;;;4837792;24;20054;-94
2024/01/31 17:16:34;;;;;;;8.88;6.88;;;;;;;;;;4795557;29;20066;-95
2024/01/31 17:19:02;;;;;;;10.82;6.80;;;;;;;;;;4774556;29;20046;-95
2024/01/31 17:21:28;;;;;;;8.93;6.93;;;;;;;;;;4791449;29;20053;-95
2024/01/31 17:23:54;;;;;;;10.20;6.03;;;;;;;;;;4782924;29;20051;-95
2024/01/31 17:26:20;;;;;;;11.77;6.68;;;;;;;;;;4809329;29;20058;-96
2024/01/31 17:28:47;;;;;;;7.10;5.18;;;;;;;;;;4812354;29;20065;-95
2024/01/31 17:31:13;;;;;;;7.07;5.07;;;;;;;;;;4808289;29;20062;-95
2024/01/31 17:33:39;;;;;;;8.00;5.18;;;;;;;;;;4848830;24;20055;-94
2024/01/31 17:36:05;;;;;;;6.82;5.10;;;;;;;;;;4805449;29;20416;-94
2024/01/31 17:38:32;;;;;;;7.25;5.30;;;;;;;;;;4794909;29;20050;-95
2024/01/31 17:41:00;;;;;;;6.35;4.53;;;;;;;;;;4798732;29;20058;-94
2024/01/31 17:43:26;;;;;;;7.32;4.88;;;;;;;;;;4807147;29;20058;-95
2024/01/31 17:45:55;;;;;;;11.10;4.50;;;;;;;;;;4809102;29;20042;-96
2024/01/31 17:48:21;;;;;;;10.30;5.03;;;;;;;;;;4809811;23;20490;-95
2024/01/31 17:50:47;;;;;;;6.55;4.22;;;;;;;;;;4806551;29;20453;-95
2024/01/31 17:53:13;;;;;;;8.63;5.47;;;;;;;;;;4821345;29;20111;-94
2024/01/31 17:55:40;;;;;;;6.15;5.03;;;;;;;;;;4789030;29;20049;-95
2024/01/31 17:58:06;;;;;;;8.95;4.57;;;;;;;;;;4816239;29;20050;-96
2024/01/31 18:00:32;;;;;;;8.30;4.93;;;;;;;;;;4823126;29;20056;-94
2024/01/31 18:02:58;;;;;;;9.13;4.30;;;;;;;;;;4801451;29;20050;-96
2024/01/31 18:05:24;;;;;;;5.72;3.40;;;;;;;;;;4805467;29;20046;-96
2024/01/31 18:07:51;;;;;;;9.40;4.97;;;;;;;;;;4805583;29;20090;-94
2024/01/31 18:10:17;;;;;;;13.55;7.75;;;;;;;;;;4805707;29;20055;-94
2024/01/31 18:12:43;;;;;;;12.07;5.35;;;;;;;;;;4804806;29;20055;-95
2024/01/31 18:17:35;;;;;;;8.35;4.75;;;;;;;;;;4885856;23;20089;-94
2024/01/31 18:20:01;;;;;;;8.93;4.20;;;;;;;;;;4811065;29;20048;-95
2024/01/31 18:22:28;;;;;;;13.52;5.40;;;;;;;;;;4806843;29;20092;-95
2024/01/31 18:25:00;;;;;;;7.60;4.63;;;;;;;;;;4817712;29;20045;-96
2024/01/31 18:27:30;;;;;;;7.50;4.68;;;;;;;;;;4815045;29;20060;-95
2024/01/31 18:29:56;;;;;;;9.57;4.55;;;;;;;;;;4823862;29;20141;-94
2024/01/31 18:32:25;;;;;;;7.65;4.18;;;;;;;;;;4824431;29;20046;-95
2024/01/31 18:34:51;;;;;;;9.88;4.18;;;;;;;;;;4810273;29;20129;-96
2024/01/31 18:37:22;;;;;;;6.65;4.25;;;;;;;;;;4825219;29;20038;-95
2024/01/31 18:39:49;;;;;;;12.13;4.55;;;;;;;;;;4792950;29;20046;-95
2024/01/31 18:42:18;;;;;;;4.70;4.25;;;;;;;;;;4805770;29;20065;-95
2024/01/31 18:44:56;;;;;;;8.68;3.72;;;;;;;;;;4793349;29;20045;-94
2024/01/31 18:47:25;;;;;;;10.23;4.07;;;;;;;;;;4810965;29;20050;-96
2024/01/31 18:49:53;;;;;;;6.35;3.90;;;;;;;;;;4796063;29;20042;-95
2024/01/31 18:52:34;;;;;;;8.07;3.75;;;;;;;;;;4814623;29;20050;-95
2024/01/31 18:55:03;;;;;;;6.95;3.80;;;;;;;;;;4812340;29;20038;-95
2024/01/31 18:57:39;;;;;;;13.93;4.47;;;;;;;;;;4837648;29;20123;-95
2024/01/31 19:00:06;;;;;;;6.57;3.97;;;;;;;;;;4805758;29;20054;-95
2024/01/31 19:02:48;;;;;;;8.32;4.43;;;;;;;;;;4810304;29;20050;-96
2024/01/31 19:05:18;;;;;;;7.80;3.47;;;;;;;;;;4813680;29;20160;-94
2024/01/31 22:05:38;;;;;;;6.40;4.32;;;;;;;;;;4956168;23;20050;-95
2024/01/31 22:08:05;;;;;;;12.70;6.70;;;;;;;;;;4810931;29;20412;-95
2024/01/31 22:10:37;;;;;;;8.85;5.95;;;;;;;;;;4810377;29;20080;-96
2024/01/31 22:13:08;;;;;;;12.25;5.72;;;;;;;;;;4810762;29;20058;-96
2024/01/31 22:15:37;;;;;;;15.85;5.43;;;;;;;;;;4797871;29;20138;-96
2024/01/31 22:18:06;;;;;;;10.02;5.57;;;;;;;;;;4810537;29;20049;-96
2024/01/31 22:20:42;;;;;;;14.90;6.60;;;;;;;;;;4829628;29;20041;-95
2024/01/31 22:23:14;;;;;;;10.75;5.88;;;;;;;;;;4797236;29;20046;-96
2024/01/31 22:25:46;;;;;;;11.68;5.60;;;;;;;;;;4827270;29;20046;-96
2024/01/31 22:28:12;;;;;;;15.45;7.13;;;;;;;;;;4823778;29;20050;-96
2024/01/31 22:30:41;;;;;;;12.38;6.90;;;;;;;;;;4798240;29;20081;-96
2024/01/31 22:33:07;;;;;;;13.18;6.63;;;;;;;;;;4793734;29;20078;-96
2024/01/31 22:35:34;;;;;;;10.63;5.75;;;;;;;;;;4797943;29;20060;-95
2024/01/31 22:38:00;;;;;;;13.05;6.93;;;;;;;;;;4829331;29;20420;-95
2024/01/31 22:40:32;;;;;;;13.95;6.22;;;;;;;;;;4798830;29;20065;-96
2024/01/31 22:43:04;;;;;;;8.30;5.78;;;;;;;;;;4816702;29;20084;-95
2024/01/31 22:45:35;;;;;;;9.52;5.97;;;;;;;;;;4809803;29;20062;-95
2024/01/31 22:48:32;;;;;;;;;;;;;;;;;;;;;
2024/01/31 22:51:00;;;;;;;14.15;7.10;;;;;;;;;;4816278;29;20046;-95
2024/01/31 22:53:29;;;;;;;12.63;6.93;;;;;;;;;;4816572;29;20122;-96
2024/01/31 22:55:55;;;;;;;15.82;7.50;;;;;;;;;;4808273;29;20047;-95
2024/01/31 22:58:26;;;;;;;15.35;6.65;;;;;;;;;;4853495;29;20049;-94
2024/01/31 23:00:52;;;;;;;15.82;7.35;;;;;;;;;;4809728;29;20127;-94
2024/01/31 23:03:24;;;;;;;21.23;8.27;;;;;;;;;;4806723;29;20422;-95
2024/01/31 23:05:53;;;;;;;17.20;6.70;;;;;;;;;;4822798;29;20061;-94
2024/01/31 23:08:19;;;;;;;18.55;6.93;;;;;;;;;;4821661;29;20079;-96
2024/01/31 23:10:46;;;;;;;17.23;7.00;;;;;;;;;;4822005;29;20042;-95
2024/01/31 23:13:12;;;;;;;16.77;6.00;;;;;;;;;;4805366;29;20060;-96
2024/01/31 23:15:38;;;;;;;10.43;6.07;;;;;;;;;;4819460;29;20050;-95
2024/01/31 23:18:06;;;;;;;14.32;6.05;;;;;;;;;;4821172;29;20046;-94
2024/01/31 23:20:33;;;;;;;16.92;5.63;;;;;;;;;;4792915;29;20045;-96
2024/01/31 23:22:59;;;;;;;15.60;5.80;;;;;;;;;;4818753;29;20495;-95
2024/01/31 23:25:25;;;;;;;14.35;6.13;;;;;;;;;;4818130;29;20089;-96
2024/01/31 23:27:51;;;;;;;17.27;6.32;;;;;;;;;;4814721;29;20094;-96
2024/01/31 23:30:17;;;;;;;14.52;5.95;;;;;;;;;;4814130;29;20054;-95
2024/01/31 23:32:43;;;;;;;14.45;5.68;;;;;;;;;;4815537;29;20050;-95
2024/01/31 23:35:29;;;;;;;10.70;5.43;;;;;;;;;;4810731;29;20058;-96
2024/01/31 23:37:58;;;;;;;22.15;5.80;;;;;;;;;;4810746;29;20084;-95
2024/01/31 23:40:24;;;;;;;21.90;6.72;;;;;;;;;;4814020;29;20058;-95
2024/01/31 23:42:50;;;;;;;12.27;4.80;;;;;;;;;;4814544;29;20042;-95
2024/01/31 23:45:19;;;;;;;10.88;5.72;;;;;;;;;;4814167;29;20141;-96
2024/01/31 23:47:48;;;;;;;9.63;5.28;;;;;;;;;;4814550;29;20081;-96
2024/01/31 23:50:14;;;;;;;12.52;4.97;;;;;;;;;;4828807;29;20061;-96
2024/01/31 23:52:43;;;;;;;18.70;6.05;;;;;;;;;;4797839;29;20046;-96
2024/01/31 23:55:09;;;;;;;12.65;5.82;;;;;;;;;;4814393;29;20049;-96
2024/01/31 23:57:35;;;;;;;8.77;5.18;;;;;;;;;;4805283;29;20695;-95
